sensor_id;sensor_type;location;lat;lon;timestamp;P1;durP1;ratioP1;P2;durP2;ratioP2
21890;SDS011;11110;52.386;16.940;2023-08-06T00:01:58;27.00;;;5.88;;
21890;SDS011;11110;52.386;16.940;2023-08-06T00:04:26;14.45;;;4.05;;
21890;SDS011;11110;52.386;16.940;2023-08-06T00:06:54;18.73;;;4.35;;
21890;SDS011;11110;52.386;16.940;2023-08-06T00:09:23;19.63;;;4.57;;
21890;SDS011;11110;52.386;16.940;2023-08-06T00:11:51;17.05;;;4.28;;
21890;SDS011;11110;52.386;16.940;2023-08-06T00:14:22;18.15;;;4.40;;
21890;SDS011;11110;52.386;16.940;2023-08-06T00:16:50;12.00;;;3.47;;
21890;SDS011;11110;52.386;16.940;2023-08-06T00:19:19;22.35;;;5.03;;
21890;SDS011;11110;52.386;16.940;2023-08-06T00:21:47;13.27;;;3.55;;
21890;SDS011;11110;52.386;16.940;2023-08-06T00:24:17;20.45;;;4.45;;
21890;SDS011;11110;52.386;16.940;2023-08-06T00:26:46;16.90;;;4.28;;
21890;SDS011;11110;52.386;16.940;2023-08-06T00:29:15;16.80;;;4.15;;
21890;SDS011;11110;52.386;16.940;2023-08-06T00:31:44;17.05;;;4.43;;
21890;SDS011;11110;52.386;16.940;2023-08-06T00:34:13;22.98;;;4.78;;
21890;SDS011;11110;52.386;16.940;2023-08-06T00:36:41;20.30;;;4.50;;
21890;SDS011;11110;52.386;16.940;2023-08-06T00:39:10;18.08;;;4.85;;
21890;SDS011;11110;52.386;16.940;2023-08-06T00:41:38;14.20;;;3.95;;
21890;SDS011;11110;52.386;16.940;2023-08-06T00:44:07;22.88;;;6.40;;
21890;SDS011;11110;52.386;16.940;2023-08-06T00:46:35;23.10;;;5.75;;
21890;SDS011;11110;52.386;16.940;2023-08-06T00:49:06;21.35;;;5.40;;
21890;SDS011;11110;52.386;16.940;2023-08-06T00:51:34;17.35;;;4.80;;
21890;SDS011;11110;52.386;16.940;2023-08-06T00:54:03;22.38;;;5.70;;
21890;SDS011;11110;52.386;16.940;2023-08-06T00:56:32;17.80;;;4.95;;
21890;SDS011;11110;52.386;16.940;2023-08-06T00:59:02;23.17;;;4.95;;
21890;SDS011;11110;52.386;16.940;2023-08-06T01:01:31;19.13;;;4.70;;
21890;SDS011;11110;52.386;16.940;2023-08-06T01:04:00;19.50;;;4.93;;
21890;SDS011;11110;52.386;16.940;2023-08-06T01:06:33;15.25;;;4.30;;
21890;SDS011;11110;52.386;16.940;2023-08-06T01:09:11;21.75;;;5.53;;
21890;SDS011;11110;52.386;16.940;2023-08-06T01:11:54;15.82;;;4.40;;
21890;SDS011;11110;52.386;16.940;2023-08-06T01:14:33;21.77;;;4.97;;
21890;SDS011;11110;52.386;16.940;2023-08-06T01:17:13;20.38;;;4.75;;
21890;SDS011;11110;52.386;16.940;2023-08-06T01:19:43;16.55;;;4.15;;
21890;SDS011;11110;52.386;16.940;2023-08-06T01:22:13;17.58;;;4.57;;
21890;SDS011;11110;52.386;16.940;2023-08-06T01:24:41;23.08;;;5.13;;
21890;SDS011;11110;52.386;16.940;2023-08-06T01:27:17;30.48;;;6.75;;
21890;SDS011;11110;52.386;16.940;2023-08-06T01:29:56;22.65;;;5.20;;
21890;SDS011;11110;52.386;16.940;2023-08-06T01:32:31;19.70;;;4.80;;
21890;SDS011;11110;52.386;16.940;2023-08-06T01:35:02;18.77;;;4.30;;
21890;SDS011;11110;52.386;16.940;2023-08-06T01:37:33;38.17;;;6.97;;
21890;SDS011;11110;52.386;16.940;2023-08-06T01:40:05;32.67;;;6.22;;
21890;SDS011;11110;52.386;16.940;2023-08-06T01:42:34;29.35;;;6.43;;
21890;SDS011;11110;52.386;16.940;2023-08-06T01:45:03;25.85;;;4.93;;
21890;SDS011;11110;52.386;16.940;2023-08-06T01:47:32;30.63;;;5.85;;
21890;SDS011;11110;52.386;16.940;2023-08-06T01:50:01;21.50;;;4.65;;
21890;SDS011;11110;52.386;16.940;2023-08-06T01:52:30;16.60;;;3.95;;
21890;SDS011;11110;52.386;16.940;2023-08-06T01:55:00;26.33;;;5.18;;
21890;SDS011;11110;52.386;16.940;2023-08-06T01:57:28;31.42;;;5.75;;
21890;SDS011;11110;52.386;16.940;2023-08-06T01:59:58;21.05;;;4.95;;
21890;SDS011;11110;52.386;16.940;2023-08-06T02:02:26;23.95;;;5.15;;
21890;SDS011;11110;52.386;16.940;2023-08-06T02:04:55;18.00;;;3.97;;
21890;SDS011;11110;52.386;16.940;2023-08-06T02:07:25;18.48;;;3.95;;
21890;SDS011;11110;52.386;16.940;2023-08-06T02:09:53;17.75;;;3.85;;
21890;SDS011;11110;52.386;16.940;2023-08-06T02:12:23;18.48;;;3.83;;
21890;SDS011;11110;52.386;16.940;2023-08-06T02:14:51;16.30;;;3.65;;
21890;SDS011;11110;52.386;16.940;2023-08-06T02:17:20;22.23;;;4.03;;
21890;SDS011;11110;52.386;16.940;2023-08-06T02:19:48;20.92;;;4.20;;
21890;SDS011;11110;52.386;16.940;2023-08-06T02:22:17;15.60;;;3.25;;
21890;SDS011;11110;52.386;16.940;2023-08-06T02:24:45;15.82;;;3.53;;
21890;SDS011;11110;52.386;16.940;2023-08-06T02:27:14;20.45;;;3.85;;
21890;SDS011;11110;52.386;16.940;2023-08-06T02:29:44;16.50;;;3.28;;
21890;SDS011;11110;52.386;16.940;2023-08-06T02:32:12;14.18;;;2.97;;
21890;SDS011;11110;52.386;16.940;2023-08-06T02:34:41;20.00;;;3.95;;
21890;SDS011;11110;52.386;16.940;2023-08-06T02:37:10;43.75;;;7.93;;
21890;SDS011;11110;52.386;16.940;2023-08-06T02:39:39;15.38;;;3.45;;
21890;SDS011;11110;52.386;16.940;2023-08-06T02:42:07;17.02;;;3.53;;
21890;SDS011;11110;52.386;16.940;2023-08-06T02:44:36;17.40;;;4.35;;
21890;SDS011;11110;52.386;16.940;2023-08-06T02:47:06;23.70;;;6.75;;
21890;SDS011;11110;52.386;16.940;2023-08-06T02:49:34;16.38;;;3.95;;
21890;SDS011;11110;52.386;16.940;2023-08-06T02:52:03;18.85;;;4.78;;
21890;SDS011;11110;52.386;16.940;2023-08-06T02:54:33;16.95;;;4.22;;
21890;SDS011;11110;52.386;16.940;2023-08-06T02:57:01;31.27;;;11.23;;
21890;SDS011;11110;52.386;16.940;2023-08-06T02:59:32;14.75;;;3.70;;
21890;SDS011;11110;52.386;16.940;2023-08-06T03:02:15;17.50;;;4.38;;
21890;SDS011;11110;52.386;16.940;2023-08-06T03:04:56;26.25;;;5.00;;
21890;SDS011;11110;52.386;16.940;2023-08-06T03:07:28;16.38;;;3.30;;
21890;SDS011;11110;52.386;16.940;2023-08-06T03:10:04;24.83;;;4.40;;
21890;SDS011;11110;52.386;16.940;2023-08-06T03:12:34;21.25;;;3.88;;
21890;SDS011;11110;52.386;16.940;2023-08-06T03:15:04;18.15;;;4.07;;
21890;SDS011;11110;52.386;16.940;2023-08-06T03:17:35;27.50;;;6.75;;
21890;SDS011;11110;52.386;16.940;2023-08-06T03:20:05;15.65;;;4.15;;
21890;SDS011;11110;52.386;16.940;2023-08-06T03:22:35;17.40;;;3.75;;
21890;SDS011;11110;52.386;16.940;2023-08-06T03:25:05;19.85;;;3.55;;
21890;SDS011;11110;52.386;16.940;2023-08-06T03:27:35;23.08;;;4.75;;
21890;SDS011;11110;52.386;16.940;2023-08-06T03:30:04;13.90;;;2.92;;
21890;SDS011;11110;52.386;16.940;2023-08-06T03:32:35;18.88;;;4.80;;
21890;SDS011;11110;52.386;16.940;2023-08-06T03:35:05;15.73;;;3.30;;
21890;SDS011;11110;52.386;16.940;2023-08-06T03:37:33;16.77;;;3.95;;
21890;SDS011;11110;52.386;16.940;2023-08-06T03:40:02;13.30;;;2.92;;
21890;SDS011;11110;52.386;16.940;2023-08-06T03:42:32;20.38;;;4.18;;
21890;SDS011;11110;52.386;16.940;2023-08-06T03:45:02;16.48;;;3.08;;
21890;SDS011;11110;52.386;16.940;2023-08-06T03:47:31;12.05;;;2.78;;
21890;SDS011;11110;52.386;16.940;2023-08-06T03:50:02;21.48;;;3.97;;
21890;SDS011;11110;52.386;16.940;2023-08-06T03:52:30;15.77;;;3.05;;
21890;SDS011;11110;52.386;16.940;2023-08-06T03:54:59;21.48;;;5.28;;
21890;SDS011;11110;52.386;16.940;2023-08-06T03:57:27;17.83;;;5.03;;
21890;SDS011;11110;52.386;16.940;2023-08-06T03:59:56;14.20;;;3.70;;
21890;SDS011;11110;52.386;16.940;2023-08-06T04:02:27;17.67;;;3.45;;
21890;SDS011;11110;52.386;16.940;2023-08-06T04:04:56;27.40;;;4.82;;
21890;SDS011;11110;52.386;16.940;2023-08-06T04:07:27;15.43;;;3.40;;
21890;SDS011;11110;52.386;16.940;2023-08-06T04:09:57;23.77;;;4.43;;
21890;SDS011;11110;52.386;16.940;2023-08-06T04:12:26;14.18;;;2.78;;
21890;SDS011;11110;52.386;16.940;2023-08-06T04:14:57;20.65;;;3.70;;
21890;SDS011;11110;52.386;16.940;2023-08-06T04:17:26;24.98;;;4.60;;
21890;SDS011;11110;52.386;16.940;2023-08-06T04:19:54;16.10;;;3.03;;
21890;SDS011;11110;52.386;16.940;2023-08-06T04:22:25;14.63;;;2.83;;
21890;SDS011;11110;52.386;16.940;2023-08-06T04:24:54;15.60;;;3.75;;
21890;SDS011;11110;52.386;16.940;2023-08-06T04:27:23;20.75;;;4.32;;
21890;SDS011;11110;52.386;16.940;2023-08-06T04:29:52;23.02;;;4.15;;
21890;SDS011;11110;52.386;16.940;2023-08-06T04:32:20;16.55;;;3.67;;
21890;SDS011;11110;52.386;16.940;2023-08-06T04:34:52;13.55;;;3.22;;
21890;SDS011;11110;52.386;16.940;2023-08-06T04:37:23;12.77;;;2.85;;
21890;SDS011;11110;52.386;16.940;2023-08-06T04:39:53;20.45;;;3.42;;
21890;SDS011;11110;52.386;16.940;2023-08-06T04:42:22;18.42;;;3.22;;
21890;SDS011;11110;52.386;16.940;2023-08-06T04:44:51;16.02;;;3.17;;
21890;SDS011;11110;52.386;16.940;2023-08-06T04:47:19;21.17;;;3.58;;
21890;SDS011;11110;52.386;16.940;2023-08-06T04:49:48;22.50;;;3.63;;
21890;SDS011;11110;52.386;16.940;2023-08-06T04:52:16;10.98;;;1.98;;
21890;SDS011;11110;52.386;16.940;2023-08-06T04:54:45;17.88;;;3.05;;
21890;SDS011;11110;52.386;16.940;2023-08-06T04:57:14;18.50;;;3.10;;
21890;SDS011;11110;52.386;16.940;2023-08-06T04:59:43;13.13;;;2.40;;
21890;SDS011;11110;52.386;16.940;2023-08-06T05:02:11;13.98;;;2.55;;
21890;SDS011;11110;52.386;16.940;2023-08-06T05:04:40;14.80;;;3.08;;
21890;SDS011;11110;52.386;16.940;2023-08-06T05:07:10;19.33;;;3.13;;
21890;SDS011;11110;52.386;16.940;2023-08-06T05:09:38;16.70;;;3.28;;
21890;SDS011;11110;52.386;16.940;2023-08-06T05:12:07;21.73;;;3.70;;
21890;SDS011;11110;52.386;16.940;2023-08-06T05:14:37;14.48;;;3.47;;
21890;SDS011;11110;52.386;16.940;2023-08-06T05:17:06;22.52;;;4.45;;
21890;SDS011;11110;52.386;16.940;2023-08-06T05:19:34;18.98;;;5.45;;
21890;SDS011;11110;52.386;16.940;2023-08-06T05:22:03;13.90;;;3.40;;
21890;SDS011;11110;52.386;16.940;2023-08-06T05:24:32;16.00;;;3.58;;
21890;SDS011;11110;52.386;16.940;2023-08-06T05:27:00;14.32;;;2.95;;
21890;SDS011;11110;52.386;16.940;2023-08-06T05:29:29;14.25;;;2.55;;
21890;SDS011;11110;52.386;16.940;2023-08-06T05:31:59;17.88;;;3.00;;
21890;SDS011;11110;52.386;16.940;2023-08-06T05:34:27;16.23;;;2.92;;
21890;SDS011;11110;52.386;16.940;2023-08-06T05:36:56;16.90;;;3.00;;
21890;SDS011;11110;52.386;16.940;2023-08-06T05:39:24;19.05;;;3.00;;
21890;SDS011;11110;52.386;16.940;2023-08-06T05:41:53;22.30;;;3.50;;
21890;SDS011;11110;52.386;16.940;2023-08-06T05:44:23;15.88;;;2.95;;
21890;SDS011;11110;52.386;16.940;2023-08-06T05:46:51;17.20;;;3.15;;
21890;SDS011;11110;52.386;16.940;2023-08-06T05:49:21;17.10;;;3.67;;
21890;SDS011;11110;52.386;16.940;2023-08-06T05:51:50;10.80;;;2.90;;
21890;SDS011;11110;52.386;16.940;2023-08-06T05:54:20;15.80;;;3.25;;
21890;SDS011;11110;52.386;16.940;2023-08-06T05:56:48;20.60;;;5.95;;
21890;SDS011;11110;52.386;16.940;2023-08-06T05:59:17;20.85;;;8.38;;
21890;SDS011;11110;52.386;16.940;2023-08-06T06:01:45;18.67;;;9.70;;
21890;SDS011;11110;52.386;16.940;2023-08-06T06:04:14;19.48;;;9.75;;
21890;SDS011;11110;52.386;16.940;2023-08-06T06:06:44;25.15;;;8.50;;
21890;SDS011;11110;52.386;16.940;2023-08-06T06:09:12;19.17;;;6.30;;
21890;SDS011;11110;52.386;16.940;2023-08-06T06:11:41;24.25;;;15.95;;
21890;SDS011;11110;52.386;16.940;2023-08-06T06:14:09;37.85;;;33.05;;
21890;SDS011;11110;52.386;16.940;2023-08-06T06:16:38;44.70;;;39.60;;
21890;SDS011;11110;52.386;16.940;2023-08-06T06:19:06;36.17;;;32.55;;
21890;SDS011;11110;52.386;16.940;2023-08-06T06:21:35;34.72;;;28.13;;
21890;SDS011;11110;52.386;16.940;2023-08-06T06:24:06;32.42;;;27.85;;
21890;SDS011;11110;52.386;16.940;2023-08-06T06:26:34;15.55;;;13.85;;
21890;SDS011;11110;52.386;16.940;2023-08-06T06:29:03;15.77;;;10.27;;
21890;SDS011;11110;52.386;16.940;2023-08-06T06:31:34;22.70;;;11.98;;
21890;SDS011;11110;52.386;16.940;2023-08-06T06:34:02;25.88;;;12.00;;
21890;SDS011;11110;52.386;16.940;2023-08-06T06:36:31;21.05;;;11.02;;
21890;SDS011;11110;52.386;16.940;2023-08-06T06:38:59;48.33;;;40.40;;
21890;SDS011;11110;52.386;16.940;2023-08-06T06:41:30;29.75;;;24.08;;
21890;SDS011;11110;52.386;16.940;2023-08-06T06:44:08;36.00;;;32.75;;
21890;SDS011;11110;52.386;16.940;2023-08-06T06:46:37;21.98;;;8.95;;
21890;SDS011;11110;52.386;16.940;2023-08-06T06:49:05;23.20;;;5.82;;
21890;SDS011;11110;52.386;16.940;2023-08-06T06:51:34;17.33;;;3.58;;
21890;SDS011;11110;52.386;16.940;2023-08-06T06:54:05;17.70;;;4.00;;
21890;SDS011;11110;52.386;16.940;2023-08-06T06:56:35;21.75;;;4.82;;
21890;SDS011;11110;52.386;16.940;2023-08-06T06:59:03;18.10;;;3.70;;
21890;SDS011;11110;52.386;16.940;2023-08-06T07:01:31;22.65;;;5.43;;
21890;SDS011;11110;52.386;16.940;2023-08-06T07:04:00;17.25;;;4.80;;
21890;SDS011;11110;52.386;16.940;2023-08-06T07:06:31;24.95;;;5.90;;
21890;SDS011;11110;52.386;16.940;2023-08-06T07:08:59;19.38;;;5.55;;
21890;SDS011;11110;52.386;16.940;2023-08-06T07:11:28;17.20;;;4.10;;
21890;SDS011;11110;52.386;16.940;2023-08-06T07:13:58;19.02;;;4.80;;
21890;SDS011;11110;52.386;16.940;2023-08-06T07:16:27;18.98;;;3.97;;
21890;SDS011;11110;52.386;16.940;2023-08-06T07:18:56;15.55;;;3.10;;
21890;SDS011;11110;52.386;16.940;2023-08-06T07:21:24;19.92;;;4.15;;
21890;SDS011;11110;52.386;16.940;2023-08-06T07:23:53;19.15;;;4.03;;
21890;SDS011;11110;52.386;16.940;2023-08-06T07:26:21;18.05;;;3.97;;
21890;SDS011;11110;52.386;16.940;2023-08-06T07:28:50;11.07;;;2.38;;
21890;SDS011;11110;52.386;16.940;2023-08-06T07:31:20;29.58;;;5.25;;
21890;SDS011;11110;52.386;16.940;2023-08-06T07:33:48;20.40;;;6.22;;
21890;SDS011;11110;52.386;16.940;2023-08-06T07:36:17;16.90;;;4.65;;
21890;SDS011;11110;52.386;16.940;2023-08-06T07:38:46;27.00;;;9.10;;
21890;SDS011;11110;52.386;16.940;2023-08-06T07:41:18;25.58;;;11.68;;
21890;SDS011;11110;52.386;16.940;2023-08-06T07:43:46;21.50;;;8.15;;
21890;SDS011;11110;52.386;16.940;2023-08-06T07:46:15;14.95;;;5.60;;
21890;SDS011;11110;52.386;16.940;2023-08-06T07:48:45;24.92;;;6.05;;
21890;SDS011;11110;52.386;16.940;2023-08-06T07:51:13;21.50;;;7.05;;
21890;SDS011;11110;52.386;16.940;2023-08-06T07:53:42;19.73;;;5.50;;
21890;SDS011;11110;52.386;16.940;2023-08-06T07:56:11;26.63;;;7.65;;
21890;SDS011;11110;52.386;16.940;2023-08-06T07:58:39;26.25;;;7.85;;
21890;SDS011;11110;52.386;16.940;2023-08-06T08:01:08;20.75;;;4.70;;
21890;SDS011;11110;52.386;16.940;2023-08-06T08:03:36;18.88;;;12.73;;
21890;SDS011;11110;52.386;16.940;2023-08-06T08:06:06;20.25;;;7.55;;
21890;SDS011;11110;52.386;16.940;2023-08-06T08:08:35;33.22;;;7.18;;
21890;SDS011;11110;52.386;16.940;2023-08-06T08:11:05;19.77;;;4.78;;
21890;SDS011;11110;52.386;16.940;2023-08-06T08:13:34;27.17;;;10.13;;
21890;SDS011;11110;52.386;16.940;2023-08-06T08:16:02;18.65;;;14.52;;
21890;SDS011;11110;52.386;16.940;2023-08-06T08:18:31;35.97;;;31.38;;
21890;SDS011;11110;52.386;16.940;2023-08-06T08:21:00;27.73;;;22.92;;
21890;SDS011;11110;52.386;16.940;2023-08-06T08:23:30;19.98;;;13.75;;
21890;SDS011;11110;52.386;16.940;2023-08-06T08:25:59;27.88;;;10.45;;
21890;SDS011;11110;52.386;16.940;2023-08-06T08:28:30;23.40;;;10.05;;
21890;SDS011;11110;52.386;16.940;2023-08-06T08:30:58;23.88;;;16.30;;
21890;SDS011;11110;52.386;16.940;2023-08-06T08:33:27;35.20;;;30.27;;
21890;SDS011;11110;52.386;16.940;2023-08-06T08:35:55;41.92;;;32.50;;
21890;SDS011;11110;52.386;16.940;2023-08-06T08:38:24;28.70;;;11.45;;
21890;SDS011;11110;52.386;16.940;2023-08-06T08:40:54;21.75;;;7.25;;
21890;SDS011;11110;52.386;16.940;2023-08-06T08:43:23;26.05;;;9.77;;
21890;SDS011;11110;52.386;16.940;2023-08-06T08:45:52;26.67;;;16.58;;
21890;SDS011;11110;52.386;16.940;2023-08-06T08:48:22;44.17;;;39.55;;
21890;SDS011;11110;52.386;16.940;2023-08-06T08:50:51;42.55;;;32.78;;
21890;SDS011;11110;52.386;16.940;2023-08-06T08:53:20;26.58;;;10.15;;
21890;SDS011;11110;52.386;16.940;2023-08-06T08:55:49;32.53;;;22.13;;
21890;SDS011;11110;52.386;16.940;2023-08-06T08:58:19;30.58;;;27.40;;
21890;SDS011;11110;52.386;16.940;2023-08-06T09:00:48;28.80;;;16.38;;
21890;SDS011;11110;52.386;16.940;2023-08-06T09:03:17;35.38;;;22.00;;
21890;SDS011;11110;52.386;16.940;2023-08-06T09:05:47;22.48;;;12.25;;
21890;SDS011;11110;52.386;16.940;2023-08-06T09:08:21;42.08;;;30.73;;
21890;SDS011;11110;52.386;16.940;2023-08-06T09:10:54;25.83;;;17.25;;
21890;SDS011;11110;52.386;16.940;2023-08-06T09:13:26;57.47;;;46.33;;
21890;SDS011;11110;52.386;16.940;2023-08-06T09:15:54;32.42;;;23.15;;
21890;SDS011;11110;52.386;16.940;2023-08-06T09:18:26;34.58;;;23.98;;
21890;SDS011;11110;52.386;16.940;2023-08-06T09:20:55;39.85;;;34.13;;
21890;SDS011;11110;52.386;16.940;2023-08-06T09:23:27;31.65;;;27.40;;
21890;SDS011;11110;52.386;16.940;2023-08-06T09:25:57;40.85;;;36.50;;
21890;SDS011;11110;52.386;16.940;2023-08-06T09:28:35;44.70;;;40.38;;
21890;SDS011;11110;52.386;16.940;2023-08-06T09:31:06;37.25;;;33.45;;
21890;SDS011;11110;52.386;16.940;2023-08-06T09:33:35;31.83;;;26.75;;
21890;SDS011;11110;52.386;16.940;2023-08-06T09:36:07;43.28;;;38.78;;
21890;SDS011;11110;52.386;16.940;2023-08-06T09:38:40;22.30;;;11.32;;
21890;SDS011;11110;52.386;16.940;2023-08-06T09:41:09;19.80;;;12.38;;
21890;SDS011;11110;52.386;16.940;2023-08-06T09:43:42;19.50;;;12.20;;
21890;SDS011;11110;52.386;16.940;2023-08-06T09:46:11;15.05;;;7.05;;
21890;SDS011;11110;52.386;16.940;2023-08-06T09:48:44;24.05;;;6.43;;
21890;SDS011;11110;52.386;16.940;2023-08-06T09:51:13;19.25;;;6.53;;
21890;SDS011;11110;52.386;16.940;2023-08-06T09:53:42;16.35;;;3.67;;
21890;SDS011;11110;52.386;16.940;2023-08-06T09:56:11;19.70;;;5.82;;
21890;SDS011;11110;52.386;16.940;2023-08-06T09:58:43;20.95;;;5.35;;
21890;SDS011;11110;52.386;16.940;2023-08-06T10:01:15;19.67;;;7.07;;
21890;SDS011;11110;52.386;16.940;2023-08-06T10:03:46;16.17;;;4.40;;
21890;SDS011;11110;52.386;16.940;2023-08-06T10:06:15;17.13;;;3.60;;
21890;SDS011;11110;52.386;16.940;2023-08-06T10:08:44;24.85;;;5.15;;
21890;SDS011;11110;52.386;16.940;2023-08-06T10:11:12;15.20;;;3.45;;
21890;SDS011;11110;52.386;16.940;2023-08-06T10:13:43;18.77;;;4.53;;
21890;SDS011;11110;52.386;16.940;2023-08-06T10:16:12;16.55;;;3.28;;
21890;SDS011;11110;52.386;16.940;2023-08-06T10:18:41;20.27;;;3.70;;
21890;SDS011;11110;52.386;16.940;2023-08-06T10:21:11;12.75;;;2.80;;
21890;SDS011;11110;52.386;16.940;2023-08-06T10:23:40;21.20;;;5.68;;
21890;SDS011;11110;52.386;16.940;2023-08-06T10:26:08;14.63;;;2.83;;
21890;SDS011;11110;52.386;16.940;2023-08-06T10:28:37;17.02;;;2.78;;
21890;SDS011;11110;52.386;16.940;2023-08-06T10:31:08;16.83;;;2.70;;
21890;SDS011;11110;52.386;16.940;2023-08-06T10:33:40;16.02;;;2.92;;
21890;SDS011;11110;52.386;16.940;2023-08-06T10:36:11;18.05;;;5.18;;
21890;SDS011;11110;52.386;16.940;2023-08-06T10:38:43;24.80;;;10.60;;
21890;SDS011;11110;52.386;16.940;2023-08-06T10:41:16;17.50;;;4.88;;
21890;SDS011;11110;52.386;16.940;2023-08-06T10:43:50;25.50;;;5.18;;
21890;SDS011;11110;52.386;16.940;2023-08-06T10:46:26;18.88;;;6.32;;
21890;SDS011;11110;52.386;16.940;2023-08-06T10:48:55;23.65;;;5.00;;
21890;SDS011;11110;52.386;16.940;2023-08-06T10:51:23;21.45;;;8.05;;
21890;SDS011;11110;52.386;16.940;2023-08-06T10:53:53;28.60;;;13.07;;
21890;SDS011;11110;52.386;16.940;2023-08-06T10:56:21;17.55;;;6.68;;
21890;SDS011;11110;52.386;16.940;2023-08-06T10:58:53;17.38;;;5.32;;
21890;SDS011;11110;52.386;16.940;2023-08-06T11:01:24;27.63;;;18.83;;
21890;SDS011;11110;52.386;16.940;2023-08-06T11:03:57;28.13;;;18.27;;
21890;SDS011;11110;52.386;16.940;2023-08-06T11:06:31;29.70;;;17.77;;
21890;SDS011;11110;52.386;16.940;2023-08-06T11:09:01;22.55;;;11.27;;
21890;SDS011;11110;52.386;16.940;2023-08-06T11:11:29;14.27;;;4.65;;
21890;SDS011;11110;52.386;16.940;2023-08-06T11:13:58;22.85;;;4.78;;
21890;SDS011;11110;52.386;16.940;2023-08-06T11:16:28;23.25;;;5.43;;
21890;SDS011;11110;52.386;16.940;2023-08-06T11:18:56;31.83;;;5.40;;
21890;SDS011;11110;52.386;16.940;2023-08-06T11:21:26;25.02;;;4.03;;
21890;SDS011;11110;52.386;16.940;2023-08-06T11:23:56;20.85;;;6.55;;
21890;SDS011;11110;52.386;16.940;2023-08-06T11:26:25;14.90;;;5.88;;
21890;SDS011;11110;52.386;16.940;2023-08-06T11:28:54;14.40;;;5.07;;
21890;SDS011;11110;52.386;16.940;2023-08-06T11:31:23;25.85;;;20.63;;
21890;SDS011;11110;52.386;16.940;2023-08-06T11:33:54;52.05;;;46.35;;
21890;SDS011;11110;52.386;16.940;2023-08-06T11:36:29;57.70;;;45.95;;
21890;SDS011;11110;52.386;16.940;2023-08-06T11:38:58;34.75;;;29.52;;
21890;SDS011;11110;52.386;16.940;2023-08-06T11:41:27;27.27;;;9.45;;
21890;SDS011;11110;52.386;16.940;2023-08-06T11:43:57;16.77;;;3.70;;
21890;SDS011;11110;52.386;16.940;2023-08-06T11:46:26;18.20;;;3.90;;
21890;SDS011;11110;52.386;16.940;2023-08-06T11:48:56;18.58;;;3.75;;
21890;SDS011;11110;52.386;16.940;2023-08-06T11:51:26;18.85;;;3.83;;
21890;SDS011;11110;52.386;16.940;2023-08-06T11:53:55;24.13;;;4.38;;
21890;SDS011;11110;52.386;16.940;2023-08-06T11:56:24;16.10;;;3.55;;
21890;SDS011;11110;52.386;16.940;2023-08-06T11:58:53;14.32;;;2.95;;
21890;SDS011;11110;52.386;16.940;2023-08-06T12:01:22;20.60;;;3.47;;
21890;SDS011;11110;52.386;16.940;2023-08-06T12:03:52;24.23;;;4.10;;
21890;SDS011;11110;52.386;16.940;2023-08-06T12:06:28;16.77;;;3.08;;
21890;SDS011;11110;52.386;16.940;2023-08-06T12:08:56;17.45;;;3.13;;
21890;SDS011;11110;52.386;16.940;2023-08-06T12:11:24;15.05;;;3.25;;
21890;SDS011;11110;52.386;16.940;2023-08-06T12:13:54;19.92;;;5.53;;
21890;SDS011;11110;52.386;16.940;2023-08-06T12:16:23;19.25;;;3.67;;
21890;SDS011;11110;52.386;16.940;2023-08-06T12:18:52;29.13;;;4.90;;
21890;SDS011;11110;52.386;16.940;2023-08-06T12:21:20;15.93;;;3.85;;
21890;SDS011;11110;52.386;16.940;2023-08-06T12:23:50;21.90;;;5.45;;
21890;SDS011;11110;52.386;16.940;2023-08-06T12:26:18;19.50;;;7.40;;
21890;SDS011;11110;52.386;16.940;2023-08-06T12:28:47;17.10;;;7.93;;
21890;SDS011;11110;52.386;16.940;2023-08-06T12:31:16;18.33;;;6.78;;
21890;SDS011;11110;52.386;16.940;2023-08-06T12:33:44;28.17;;;12.55;;
21890;SDS011;11110;52.386;16.940;2023-08-06T12:36:15;19.15;;;5.32;;
21890;SDS011;11110;52.386;16.940;2023-08-06T12:38:44;21.17;;;6.35;;
21890;SDS011;11110;52.386;16.940;2023-08-06T12:41:14;21.58;;;4.15;;
21890;SDS011;11110;52.386;16.940;2023-08-06T12:43:42;19.30;;;3.90;;
21890;SDS011;11110;52.386;16.940;2023-08-06T12:46:11;23.10;;;4.13;;
21890;SDS011;11110;52.386;16.940;2023-08-06T12:48:40;18.52;;;4.13;;
21890;SDS011;11110;52.386;16.940;2023-08-06T12:51:08;19.42;;;3.38;;
21890;SDS011;11110;52.386;16.940;2023-08-06T12:53:37;14.52;;;3.53;;
21890;SDS011;11110;52.386;16.940;2023-08-06T12:56:06;26.60;;;5.13;;
21890;SDS011;11110;52.386;16.940;2023-08-06T12:58:36;21.77;;;7.55;;
21890;SDS011;11110;52.386;16.940;2023-08-06T13:01:06;14.80;;;3.20;;
21890;SDS011;11110;52.386;16.940;2023-08-06T13:03:35;22.80;;;4.47;;
21890;SDS011;11110;52.386;16.940;2023-08-06T13:06:03;22.33;;;4.78;;
21890;SDS011;11110;52.386;16.940;2023-08-06T13:08:32;17.80;;;4.13;;
21890;SDS011;11110;52.386;16.940;2023-08-06T13:11:00;19.25;;;5.32;;
21890;SDS011;11110;52.386;16.940;2023-08-06T13:13:29;20.95;;;7.40;;
21890;SDS011;11110;52.386;16.940;2023-08-06T13:15:59;23.70;;;7.10;;
21890;SDS011;11110;52.386;16.940;2023-08-06T13:18:27;20.60;;;7.57;;
21890;SDS011;11110;52.386;16.940;2023-08-06T13:20:56;14.45;;;7.28;;
21890;SDS011;11110;52.386;16.940;2023-08-06T13:23:24;22.10;;;7.32;;
21890;SDS011;11110;52.386;16.940;2023-08-06T13:25:53;17.70;;;3.33;;
21890;SDS011;11110;52.386;16.940;2023-08-06T13:28:22;20.02;;;3.67;;
21890;SDS011;11110;52.386;16.940;2023-08-06T13:30:50;23.50;;;8.93;;
21890;SDS011;11110;52.386;16.940;2023-08-06T13:33:20;18.00;;;5.32;;
21890;SDS011;11110;52.386;16.940;2023-08-06T13:35:51;16.75;;;4.70;;
21890;SDS011;11110;52.386;16.940;2023-08-06T13:38:20;16.08;;;6.65;;
21890;SDS011;11110;52.386;16.940;2023-08-06T13:40:49;18.08;;;3.22;;
21890;SDS011;11110;52.386;16.940;2023-08-06T13:43:17;13.25;;;2.33;;
21890;SDS011;11110;52.386;16.940;2023-08-06T13:45:46;17.48;;;2.80;;
21890;SDS011;11110;52.386;16.940;2023-08-06T13:48:14;20.52;;;3.15;;
21890;SDS011;11110;52.386;16.940;2023-08-06T13:50:44;20.90;;;3.38;;
21890;SDS011;11110;52.386;16.940;2023-08-06T13:53:13;18.15;;;2.90;;
21890;SDS011;11110;52.386;16.940;2023-08-06T13:55:41;19.60;;;4.00;;
21890;SDS011;11110;52.386;16.940;2023-08-06T13:58:10;13.23;;;8.05;;
21890;SDS011;11110;52.386;16.940;2023-08-06T14:00:38;21.67;;;6.30;;
21890;SDS011;11110;52.386;16.940;2023-08-06T14:03:06;23.13;;;9.98;;
21890;SDS011;11110;52.386;16.940;2023-08-06T14:05:35;14.13;;;3.35;;
21890;SDS011;11110;52.386;16.940;2023-08-06T14:08:05;24.00;;;8.15;;
21890;SDS011;11110;52.386;16.940;2023-08-06T14:10:33;22.40;;;11.57;;
21890;SDS011;11110;52.386;16.940;2023-08-06T14:13:02;18.00;;;4.90;;
21890;SDS011;11110;52.386;16.940;2023-08-06T14:15:37;15.63;;;6.50;;
21890;SDS011;11110;52.386;16.940;2023-08-06T14:18:06;19.55;;;5.40;;
21890;SDS011;11110;52.386;16.940;2023-08-06T14:20:35;16.50;;;3.88;;
21890;SDS011;11110;52.386;16.940;2023-08-06T14:23:06;21.27;;;4.72;;
21890;SDS011;11110;52.386;16.940;2023-08-06T14:25:34;19.67;;;5.60;;
21890;SDS011;11110;52.386;16.940;2023-08-06T14:28:03;25.55;;;20.90;;
21890;SDS011;11110;52.386;16.940;2023-08-06T14:30:33;26.55;;;18.38;;
21890;SDS011;11110;52.386;16.940;2023-08-06T14:33:02;18.73;;;6.38;;